Latest Coastal Weather Observations for Legendre Island

IDW60701

Issued at 1:25 am WST Friday 28 November 2014 (issued every 10 minutes, with the page automatically refreshed every 10 minutes)

About coastal observations | Map of coastal stations | Coastal observations for WA | Marine services | Other Formats
Station Details ID: 004095 Name: LEGENDRE ISLAND Lat: -20.36 Lon: 116.84 Height: 29.0 m
Data from the previous 72 hours. | See also: Recent months for locations in Western Australia
Date/Time
WST
Temp

°C
Wind Pressure Rain
since 9am
mm
Weather Cloud Vis
km
Sea
Height
m
Swell
Dir
 
Speed
knots
Gust
knots
hPa Trend Height
m
Period
s
Dir
28/01:00am 25.3 SW 16 20 1009.3 - - - - - - - - -
28/12:30am 25.5 SW 17 21 1009.4 - - - - - - - - -
28/12:00am 26.0 SW 17 20 1009.8 - - - - - - - - -
 
Date/Time
WST
Temp

°C
Wind Pressure Rain
since 9am
mm
Weather Cloud Vis
km
Sea
Height
m
Swell
Dir
 
Speed
knots
Gust
knots
hPa Trend Height
m
Period
s
Dir
27/11:30pm 25.8 SW 17 20 1010.0 - - - - - - - - -
27/11:00pm 25.9 SW 18 21 1010.2 - - - - - - - - -
27/10:30pm 26.3 SW 17 21 1010.3 - - - - - - - - -
27/10:00pm 26.4 SW 17 21 1010.3 - - - - - - - - -
27/09:30pm 26.3 WSW 17 20 1010.1 - - - - - - - - -
27/09:00pm 26.3 WSW 17 20 1010.2 - - - - - - - - -
27/08:30pm 26.7 WSW 16 19 1010.0 - - - - - - - - -
27/08:00pm 26.9 WSW 13 17 1009.8 - - - - - - - - -
27/07:30pm 27.0 W 13 16 1009.5 - - - - - - - - -
27/07:00pm 27.5 W 11 14 1009.1 - - - - - - - - -
27/06:30pm 27.5 WNW 11 13 1008.6 - - - - - - - - -
27/06:00pm 27.8 NW 10 12 1008.2 - - - - - - - - -
27/05:30pm 28.1 NNW 10 12 1007.9 - - - - - - - - -
27/05:00pm 28.3 N 11 12 1007.8 - - - - - - - - -
27/04:30pm 28.7 N 10 12 1007.9 - - - - - - - - -
27/04:00pm 29.0 N 10 11 1008.1 - - - - - - - - -
27/03:30pm 29.2 N 10 11 1008.5 - - - - - - - - -
27/03:00pm 29.4 N 11 12 1008.6 - - - - - - - - -
27/02:30pm 29.5 N 9 10 1008.9 - - - - - - - - -
27/02:00pm 30.3 N 7 9 1009.4 - - - - - - - - -
27/01:30pm 30.4 NNE 11 13 1009.6 - - - - - - - - -
27/01:00pm 30.5 NNE 11 13 1009.7 - - - - - - - - -
27/12:30pm 30.9 NE 13 15 1009.8 - - - - - - - - -
27/12:00pm 30.7 NE 14 16 1010.0 - - - - - - - - -
27/11:30am 30.6 NE 15 17 1010.0 - - - - - - - - -
27/11:00am 30.7 ENE 14 16 1010.3 - - - - - - - - -
27/10:30am 30.6 E 14 17 1010.2 - - - - - - - - -
27/10:00am 30.1 E 17 19 1010.4 - - - - - - - - -
27/09:30am 29.8 E 15 17 1010.5 - - - - - - - - -
27/09:00am 30.1 E 13 16 1010.5 - - - - - - - - -
27/08:30am 29.5 E 15 17 1010.4 - - - - - - - - -
27/08:00am 29.8 ESE 11 16 1010.3 - - - - - - - - -
27/07:30am 28.8 SSE 7 11 1010.2 - - - - - - - - -
27/07:00am 27.0 SSW 9 11 1009.9 - - - - - - - - -
27/06:30am 26.4 SSW 11 13 1009.4 - - - - - - - - -
27/06:00am 25.4 SSW 10 12 1009.2 - - - - - - - - -
27/05:30am 25.0 SSW 13 15 1008.8 - - - - - - - - -
27/05:00am 25.1 SSW 12 15 1008.8 - - - - - - - - -
27/04:30am 25.2 SSW 13 15 1008.9 - - - - - - - - -
27/04:00am 25.2 SSW 15 18 1008.5 - - - - - - - - -
27/03:30am 25.1 SSW 18 22 1008.1 - - - - - - - - -
27/03:00am 25.1 SW 20 25 1007.9 - - - - - - - - -
27/02:30am 24.8 SSW 22 26 1007.6 - - - - - - - - -
27/02:00am 25.1 SW 20 25 1007.8 - - - - - - - - -
27/01:30am 25.4 SW 20 24 1007.8 - - - - - - - - -
27/01:00am 25.6 SW 20 24 1007.9 - - - - - - - - -
27/12:30am 25.7 SW 17 22 1008.1 - - - - - - - - -
27/12:00am 25.8 SW 18 22 1008.4 - - - - - - - - -
 
Date/Time
WST
Temp

°C
Wind Pressure Rain
since 9am
mm
Weather Cloud Vis
km
Sea
Height
m
Swell
Dir
 
Speed
knots
Gust
knots
hPa Trend Height
m
Period
s
Dir
26/11:30pm 25.6 WSW 17 21 1008.4 - - - - - - - - -
26/11:00pm 25.8 WSW 17 20 1008.5 - - - - - - - - -
26/10:30pm 26.0 WSW 17 19 1008.7 - - - - - - - - -
26/10:00pm 25.9 WSW 15 19 1008.4 - - - - - - - - -
26/09:30pm 26.1 WSW 17 20 1008.1 - - - - - - - - -
26/09:00pm 25.8 WSW 17 20 1008.0 - - - - - - - - -
26/08:30pm 25.8 WSW 16 20 1007.7 - - - - - - - - -
26/08:00pm 26.1 WSW 16 19 1007.6 - - - - - - - - -
26/07:30pm 26.2 WSW 15 18 1007.5 - - - - - - - - -
26/07:00pm 26.4 W 13 16 1007.2 - - - - - - - - -
26/06:30pm 26.7 W 14 16 1006.8 - - - - - - - - -
26/06:00pm 27.6 W 13 15 1006.7 - - - - - - - - -
26/05:30pm 28.4 W 12 14 1006.6 - - - - - - - - -
26/05:00pm 29.1 W 11 13 1006.7 - - - - - - - - -
26/04:30pm 29.6 W 10 12 1006.7 - - - - - - - - -
26/04:00pm 30.3 NW 10 13 1006.8 - - - - - - - - -
26/03:30pm 30.6 NNW 10 12 1007.2 - - - - - - - - -
26/03:00pm 30.6 NNW 10 12 1007.3 - - - - - - - - -
26/02:30pm 30.3 NNW 10 12 1007.7 - - - - - - - - -
26/02:00pm 30.4 NNW 10 11 1007.8 - - - - - - - - -
26/01:30pm 30.3 N 9 11 1008.0 - - - - - - - - -
26/01:00pm 30.3 N 9 11 1008.0 - - - - - - - - -
26/12:30pm 30.5 N 9 10 1008.2 - - - - - - - - -
26/12:00pm 31.0 NNE 11 12 1008.6 - - - - - - - - -
26/11:30am 30.9 NE 11 12 1009.1 - - - - - - - - -
26/11:00am 31.4 NE 11 13 1009.4 - - - - - - - - -
26/10:30am 31.2 NE 11 13 1009.8 - - - - - - - - -
26/10:00am 30.8 NE 10 11 1009.9 - - - - - - - - -
26/09:30am 30.1 NE 10 12 1010.2 - - - - - - - - -
26/09:00am 29.9 NE 9 11 1010.4 - - - - - - - - -
26/08:30am 29.2 NE 10 12 1010.4 - - - - - - - - -
26/08:00am 28.6 NE 9 11 1010.5 - - - - - - - - -
26/07:30am 28.1 NE 10 11 1010.5 - - - - - - - - -
26/07:00am 27.5 NE 11 13 1010.2 - - - - - - - - -
26/06:30am 27.4 ENE 12 14 1009.9 - - - - - - - - -
26/06:00am 26.5 ESE 5 9 1009.5 - - - - - - - - -
26/05:30am 25.3 SSW 7 8 1009.2 - - - - - - - - -
26/05:00am 25.1 SSW 7 8 1008.7 - - - - - - - - -
26/04:30am 25.5 SSW 7 9 1008.4 - - - - - - - - -
26/04:00am 25.6 SSW 8 9 1008.6 - - - - - - - - -
26/03:30am 25.6 SSW 10 12 1008.7 - - - - - - - - -
26/03:00am 25.7 S 13 17 1009.1 - - - - - - - - -
26/02:30am 25.1 SW 15 18 1008.0 - - - - - - - - -
26/02:00am 25.0 SW 17 20 1007.7 - - - - - - - - -
26/01:30am 24.9 SW 16 19 1007.5 - - - - - - - - -
26/01:00am 25.1 WSW 14 17 1007.8 - - - - - - - - -
26/12:30am 25.1 WSW 16 20 1008.1 - - - - - - - - -
26/12:00am 25.2 WSW 18 22 1008.2 - - - - - - - - -
 
Date/Time
WST
Temp

°C
Wind Pressure Rain
since 9am
mm
Weather Cloud Vis
km
Sea
Height
m
Swell
Dir
 
Speed
knots
Gust
knots
hPa Trend Height
m
Period
s
Dir
25/11:30pm 25.3 WSW 18 22 1008.1 - - - - - - - - -
25/11:00pm 25.4 WSW 18 21 1008.5 - - - - - - - - -
25/10:30pm 25.5 W 16 20 1008.6 - - - - - - - - -
25/10:00pm 25.6 W 16 19 1008.6 - - - - - - - - -
25/09:30pm 25.7 W 16 19 1008.6 - - - - - - - - -
25/09:00pm 26.0 W 17 21 1008.2 - - - - - - - - -
25/08:30pm 26.1 W 18 24 1007.9 - - - - - - - - -
25/08:00pm 26.1 W 18 21 1007.5 - - - - - - - - -
25/07:30pm 26.3 W 16 19 1007.3 - - - - - - - - -
25/07:00pm 26.4 W 17 20 1007.1 - - - - - - - - -
25/06:30pm 26.9 W 18 22 1006.7 - - - - - - - - -
25/06:00pm 28.1 W 14 18 1006.4 - - - - - - - - -
25/05:30pm 28.6 W 14 17 1006.3 - - - - - - - - -
25/05:00pm 29.5 W 13 16 1006.2 - - - - - - - - -
25/04:30pm 30.3 W 15 18 1006.0 - - - - - - - - -
25/04:00pm 31.0 W 14 17 1006.1 - - - - - - - - -
25/03:30pm 30.8 WNW 12 15 1006.1 - - - - - - - - -
25/03:00pm 31.1 W 11 14 1006.4 - - - - - - - - -
25/02:30pm 31.2 W 10 12 1006.7 - - - - - - - - -
25/02:00pm 31.2 W 11 14 1006.8 - - - - - - - - -
25/01:30pm 31.4 W 11 14 1007.2 - - - - - - - - -
25/01:00pm 31.8 W 13 15 1007.3 - - - - - - - - -
25/12:30pm 31.5 W 14 16 1007.5 - - - - - - - - -
25/12:00pm 31.5 WSW 14 16 1007.9 - - - - - - - - -
25/11:30am 32.2 WSW 12 15 1008.2 - - - - - - - - -
25/11:00am 31.4 WSW 12 15 1008.4 - - - - - - - - -
25/10:30am 31.6 WSW 13 16 1008.6 - - - - - - - - -
25/10:00am 30.8 WSW 14 16 1008.9 - - - - - - - - -
25/09:30am 30.5 SW 11 13 1009.4 - - - - - - - - -
25/09:00am 30.6 SW 9 12 1009.7 - - - - - - - - -
25/08:30am 29.8 SW 9 11 1009.6 - - - - - - - - -
25/08:00am 28.9 SSW 11 13 1009.4 - - - - - - - - -
25/07:30am 28.2 SW 10 13 1009.3 - - - - - - - - -
25/07:00am 28.0 SW 14 16 1009.0 - - - - - - - - -
25/06:30am 26.9 SW 15 18 1008.9 - - - - - - - - -
25/06:00am 26.2 SW 15 18 1008.8 - - - - - - - - -
25/05:30am 26.0 SW 15 18 1008.7 - - - - - - - - -
25/05:00am 26.0 SW 15 19 1008.7 - - - - - - - - -
25/04:30am 25.8 SW 16 20 1008.7 - - - - - - - - -
25/04:00am 25.7 SW 16 19 1008.5 - - - - - - - - -
25/03:30am 25.6 SW 16 18 1008.3 - - - - - - - - -
25/03:00am 25.6 SW 17 20 1008.2 - - - - - - - - -
25/02:30am 25.5 SW 17 20 1008.2 - - - - - - - - -
25/02:00am 25.5 SW 17 20 1008.3 - - - - - - - - -
25/01:30am 25.5 SW 18 22 1008.3 - - - - - - - - -

Other Formats:

Comma delimited format used in spreadsheet applications
http://www.bom.gov.au/fwo/IDW60701/IDW60701.94307.axf

JavaScript Object Notation format (JSON) in row-major order
http://www.bom.gov.au/fwo/IDW60701/IDW60701.94307.json